createdAt,value
2022-12-08T00:01:14.481Z,8.70
2022-12-08T00:03:41.426Z,8.50
2022-12-08T00:06:30.804Z,8.40
2022-12-08T00:09:15.901Z,8.60
2022-12-08T00:11:42.275Z,9.70
2022-12-08T00:14:08.766Z,8.30
2022-12-08T00:16:35.129Z,10.50
2022-12-08T00:19:01.659Z,11.50
2022-12-08T00:21:28.144Z,8.00
2022-12-08T00:23:55.535Z,8.40
2022-12-08T00:26:21.982Z,7.40
2022-12-08T00:28:48.371Z,7.10
2022-12-08T00:31:15.017Z,9.50
2022-12-08T00:33:41.665Z,8.70
2022-12-08T00:36:09.304Z,9.10
2022-12-08T00:38:36.175Z,7.50
2022-12-08T00:41:02.984Z,8.20
2022-12-08T00:43:29.437Z,9.90
2022-12-08T00:45:55.812Z,8.40
2022-12-08T00:48:22.473Z,9.90
2022-12-08T00:50:48.830Z,9.30
2022-12-08T00:53:15.170Z,8.90
2022-12-08T00:55:41.897Z,8.20
2022-12-08T00:58:08.309Z,6.00
2022-12-08T01:00:34.711Z,10.10
2022-12-08T01:03:01.101Z,11.20
2022-12-08T01:05:27.532Z,9.00
2022-12-08T01:07:53.887Z,8.50
2022-12-08T01:10:20.330Z,7.50
2022-12-08T01:12:46.634Z,8.10
2022-12-08T01:15:12.911Z,7.50
2022-12-08T01:17:39.400Z,7.60
2022-12-08T01:20:06.213Z,7.80
2022-12-08T01:22:33.174Z,7.80
2022-12-08T01:24:59.460Z,6.70
2022-12-08T01:27:25.790Z,6.90
2022-12-08T01:29:52.110Z,6.90
2022-12-08T01:32:18.391Z,7.40
2022-12-08T01:34:44.691Z,7.40
2022-12-08T01:37:12.001Z,7.90
2022-12-08T01:39:40.303Z,7.20
2022-12-08T01:42:17.699Z,6.30
2022-12-08T01:44:44.019Z,7.20
2022-12-08T01:47:11.028Z,12.00
2022-12-08T01:49:37.374Z,9.90
2022-12-08T01:52:08.398Z,8.70
2022-12-08T01:54:38.314Z,8.70
2022-12-08T01:57:12.968Z,6.90
2022-12-08T01:59:42.103Z,6.90
2022-12-08T02:02:09.862Z,6.80
2022-12-08T02:04:36.767Z,5.80
2022-12-08T02:07:07.760Z,7.30
2022-12-08T02:09:34.939Z,7.60
2022-12-08T02:12:01.416Z,6.50
2022-12-08T02:14:27.749Z,6.50
2022-12-08T02:17:13.055Z,6.80
2022-12-08T02:19:39.326Z,5.80
2022-12-08T02:22:13.261Z,7.50
2022-12-08T02:24:47.347Z,6.50
2022-12-08T02:27:13.588Z,6.70
2022-12-08T02:29:39.896Z,6.00
2022-12-08T02:32:25.214Z,7.10
2022-12-08T02:35:12.829Z,6.80
2022-12-08T02:37:49.742Z,6.80
2022-12-08T02:40:20.783Z,7.10
2022-12-08T02:42:53.345Z,9.00
2022-12-08T02:45:22.585Z,7.10
2022-12-08T02:47:49.316Z,7.60
2022-12-08T02:50:15.647Z,7.80
2022-12-08T02:52:43.433Z,6.80
2022-12-08T02:55:22.173Z,8.90
2022-12-08T02:57:48.567Z,6.40
2022-12-08T03:00:16.165Z,10.70
2022-12-08T03:03:00.930Z,7.40
2022-12-08T03:05:42.699Z,7.70
2022-12-08T03:08:12.281Z,8.70
2022-12-08T03:10:51.813Z,8.90
2022-12-08T03:13:37.008Z,8.10
2022-12-08T03:16:05.860Z,11.40
2022-12-08T03:18:35.713Z,9.50
2022-12-08T03:21:03.938Z,8.10
2022-12-08T03:23:30.522Z,9.60
2022-12-08T03:26:03.640Z,10.50
2022-12-08T03:28:30.365Z,9.20
2022-12-08T03:30:58.524Z,8.90
2022-12-08T03:33:28.363Z,9.20
2022-12-08T03:35:54.984Z,8.90
2022-12-08T03:38:21.536Z,8.60
2022-12-08T03:41:07.100Z,8.40
2022-12-08T03:43:33.418Z,9.20
2022-12-08T03:45:59.806Z,9.90
2022-12-08T03:48:26.235Z,9.10
2022-12-08T03:50:52.599Z,7.90
2022-12-08T03:53:18.898Z,8.00
2022-12-08T03:55:45.229Z,7.40
2022-12-08T03:58:11.523Z,8.40
2022-12-08T04:00:37.827Z,9.00
2022-12-08T04:03:05.840Z,8.70
2022-12-08T04:05:32.203Z,8.00
2022-12-08T04:07:58.652Z,8.30
2022-12-08T04:10:25.069Z,9.30
2022-12-08T04:12:51.416Z,6.80
2022-12-08T04:15:17.783Z,11.50
2022-12-08T04:17:44.092Z,10.20
2022-12-08T04:20:10.822Z,10.00
2022-12-08T04:22:37.088Z,9.30
2022-12-08T04:25:03.853Z,9.90
2022-12-08T04:27:30.191Z,7.80
2022-12-08T04:29:56.503Z,8.50
2022-12-08T04:32:22.801Z,8.70
2022-12-08T04:34:49.101Z,8.60
2022-12-08T04:37:15.415Z,7.40
2022-12-08T04:39:41.731Z,5.60
2022-12-08T04:42:08.022Z,4.90
2022-12-08T04:44:34.703Z,6.90
2022-12-08T04:47:01.051Z,9.80
2022-12-08T04:49:27.463Z,8.70
2022-12-08T04:51:53.874Z,9.50
2022-12-08T04:54:20.214Z,10.20
2022-12-08T04:56:46.488Z,9.50
2022-12-08T04:59:12.757Z,10.00
2022-12-08T05:01:39.248Z,14.30
2022-12-08T05:04:05.762Z,16.60
2022-12-08T05:06:32.041Z,9.90
2022-12-08T05:08:58.425Z,9.30
2022-12-08T05:11:24.830Z,12.90
2022-12-08T05:13:51.245Z,10.70
2022-12-08T05:16:17.669Z,9.40
2022-12-08T05:18:44.231Z,17.20
2022-12-08T05:21:10.565Z,21.90
2022-12-08T05:23:37.189Z,17.00
2022-12-08T05:26:03.833Z,10.50
2022-12-08T05:28:41.261Z,13.20
2022-12-08T05:31:08.883Z,22.20
2022-12-08T05:33:35.224Z,15.40
2022-12-08T05:36:01.516Z,12.50
2022-12-08T05:38:28.798Z,13.30
2022-12-08T05:40:55.130Z,13.40
2022-12-08T05:43:21.437Z,14.80
2022-12-08T05:45:48.189Z,34.50
2022-12-08T05:48:14.642Z,20.70
2022-12-08T05:50:45.313Z,10.50
2022-12-08T05:53:11.589Z,7.90
2022-12-08T05:55:37.920Z,7.30
2022-12-08T05:58:07.824Z,9.00
2022-12-08T06:00:34.690Z,9.70
2022-12-08T06:03:01.181Z,9.40
2022-12-08T06:05:27.726Z,8.60
2022-12-08T06:07:54.128Z,15.00
2022-12-08T06:10:20.641Z,9.30
2022-12-08T06:12:47.060Z,10.20
2022-12-08T06:15:13.479Z,8.30
2022-12-08T06:17:39.786Z,9.30
2022-12-08T06:20:06.790Z,5.80
2022-12-08T06:22:33.915Z,7.20
2022-12-08T06:25:00.204Z,7.10
2022-12-08T06:27:26.572Z,7.50
2022-12-08T06:29:52.898Z,11.40
2022-12-08T06:32:24.369Z,7.90
2022-12-08T06:34:53.574Z,13.20
2022-12-08T06:37:19.963Z,12.60
2022-12-08T06:39:46.316Z,16.30
2022-12-08T06:42:31.597Z,14.30
2022-12-08T06:44:58.111Z,7.20
2022-12-08T06:47:26.295Z,6.50
2022-12-08T06:49:53.143Z,8.80
2022-12-08T06:52:19.580Z,6.80
2022-12-08T06:54:45.947Z,8.00
2022-12-08T06:57:12.281Z,7.70
2022-12-08T06:59:39.140Z,6.60
2022-12-08T07:02:05.515Z,6.80
2022-12-08T07:04:32.085Z,6.10
2022-12-08T07:06:58.480Z,7.10
2022-12-08T07:09:24.800Z,5.90
2022-12-08T07:11:51.149Z,6.30
2022-12-08T07:14:17.825Z,6.60
2022-12-08T07:16:44.192Z,6.90
2022-12-08T07:19:10.633Z,7.00
2022-12-08T07:21:37.112Z,6.70
2022-12-08T07:24:03.511Z,7.30
2022-12-08T07:26:30.105Z,5.70
2022-12-08T07:28:56.428Z,6.30
2022-12-08T07:31:23.971Z,6.00
2022-12-08T07:33:51.128Z,6.60
2022-12-08T07:36:17.440Z,6.60
2022-12-08T07:38:43.796Z,5.80
2022-12-08T07:41:17.351Z,6.10
2022-12-08T07:43:43.742Z,7.80
2022-12-08T07:46:13.396Z,6.50
2022-12-08T07:48:39.769Z,6.50
2022-12-08T07:51:06.144Z,6.40
2022-12-08T07:53:32.483Z,10.80
2022-12-08T07:55:58.797Z,10.70
2022-12-08T07:58:25.660Z,7.60
2022-12-08T08:00:52.250Z,6.60
2022-12-08T08:03:19.008Z,7.80
2022-12-08T08:05:47.640Z,6.40
2022-12-08T08:08:14.017Z,7.60
2022-12-08T08:10:40.464Z,7.40
2022-12-08T08:13:07.612Z,6.40
2022-12-08T08:15:34.143Z,5.60
2022-12-08T08:18:00.707Z,6.60
2022-12-08T08:20:27.021Z,7.20
2022-12-08T08:22:53.366Z,7.50
2022-12-08T08:25:22.066Z,7.00
2022-12-08T08:27:49.044Z,5.80
2022-12-08T08:30:20.474Z,5.50
2022-12-08T08:32:47.945Z,6.80
2022-12-08T08:35:14.338Z,7.40
2022-12-08T08:37:44.377Z,6.80
2022-12-08T08:40:14.886Z,7.50
2022-12-08T08:42:41.184Z,8.70
2022-12-08T08:45:07.715Z,8.30
2022-12-08T08:47:34.067Z,7.10
2022-12-08T08:50:00.517Z,7.80
2022-12-08T08:52:27.127Z,7.40
2022-12-08T08:54:53.403Z,8.80
2022-12-08T08:57:25.281Z,7.20
2022-12-08T08:59:52.687Z,8.10
2022-12-08T09:02:19.408Z,7.00
2022-12-08T09:04:45.965Z,7.20
2022-12-08T09:07:12.478Z,7.80
2022-12-08T09:09:39.085Z,12.20
2022-12-08T09:12:06.090Z,9.70
2022-12-08T09:14:32.535Z,9.90
2022-12-08T09:16:58.871Z,8.10
2022-12-08T09:19:25.214Z,10.70
2022-12-08T09:21:51.542Z,11.40
2022-12-08T09:24:17.916Z,10.80
2022-12-08T09:26:44.310Z,11.30
2022-12-08T09:29:11.212Z,9.80
2022-12-08T09:31:37.635Z,11.30
2022-12-08T09:34:04.320Z,9.00
2022-12-08T09:36:30.942Z,10.70
2022-12-08T09:38:57.479Z,10.30
2022-12-08T09:41:42.039Z,8.30
2022-12-08T09:44:20.705Z,7.50
2022-12-08T09:46:47.915Z,7.60
2022-12-08T09:49:15.880Z,9.10
2022-12-08T09:51:43.412Z,9.20
2022-12-08T09:54:15.715Z,9.20
2022-12-08T09:56:42.055Z,13.40
2022-12-08T09:59:08.344Z,12.80
2022-12-08T10:01:37.853Z,11.70
2022-12-08T10:04:11.813Z,8.90
2022-12-08T10:06:43.322Z,6.00
2022-12-08T10:09:12.435Z,6.50
2022-12-08T10:11:42.148Z,6.80
2022-12-08T10:14:11.518Z,9.50
2022-12-08T10:16:41.966Z,8.60
2022-12-08T10:19:19.867Z,8.20
2022-12-08T10:21:46.693Z,8.70
2022-12-08T10:24:21.612Z,8.80
2022-12-08T10:26:48.681Z,10.60
2022-12-08T10:29:15.142Z,8.80
2022-12-08T10:31:42.561Z,9.40
2022-12-08T10:34:19.919Z,10.00
2022-12-08T10:36:47.663Z,9.60
2022-12-08T10:39:46.427Z,9.30
2022-12-08T10:42:12.772Z,9.70
2022-12-08T10:45:00.049Z,11.10
2022-12-08T10:47:27.406Z,10.90
2022-12-08T10:50:06.233Z,10.90
2022-12-08T10:52:36.939Z,9.20
2022-12-08T10:55:03.606Z,9.90
2022-12-08T10:57:30.051Z,8.90
2022-12-08T10:59:56.815Z,7.60
2022-12-08T11:02:23.674Z,11.60
2022-12-08T11:04:58.383Z,9.50
2022-12-08T11:07:24.959Z,9.40
2022-12-08T11:09:54.910Z,7.10
2022-12-08T11:12:21.962Z,10.70
2022-12-08T11:14:49.930Z,10.70
2022-12-08T11:17:22.075Z,11.20
2022-12-08T11:19:54.243Z,10.90
2022-12-08T11:22:20.619Z,10.70
2022-12-08T11:24:55.664Z,8.80
2022-12-08T11:27:22.190Z,8.10
2022-12-08T11:29:48.550Z,9.80
2022-12-08T11:32:14.851Z,14.50
2022-12-08T11:34:46.179Z,11.30
2022-12-08T11:37:18.192Z,11.40
2022-12-08T11:39:48.053Z,10.70
2022-12-08T11:42:16.260Z,11.90
2022-12-08T11:44:51.836Z,15.80
2022-12-08T11:47:21.891Z,13.80
2022-12-08T11:49:49.758Z,15.50
2022-12-08T11:52:19.261Z,11.30
2022-12-08T11:54:49.366Z,10.80
2022-12-08T11:57:19.977Z,9.70
2022-12-08T11:59:50.729Z,9.20
2022-12-08T12:02:21.405Z,13.20
2022-12-08T12:07:25.993Z,16.00
2022-12-08T12:10:08.806Z,16.00
2022-12-08T12:12:42.858Z,10.90
2022-12-08T12:15:20.764Z,11.80
2022-12-08T12:17:47.078Z,11.90
2022-12-08T12:20:13.648Z,10.80
2022-12-08T12:22:40.478Z,9.60
2022-12-08T12:25:15.185Z,10.50
2022-12-08T12:27:43.576Z,10.00
2022-12-08T12:30:31.560Z,13.10
2022-12-08T12:33:00.034Z,9.90
2022-12-08T12:35:27.506Z,10.70
2022-12-08T12:37:57.241Z,10.80
2022-12-08T12:40:25.310Z,9.20
2022-12-08T12:42:54.731Z,11.00
2022-12-08T12:45:21.011Z,10.80
2022-12-08T12:47:57.174Z,26.10
2022-12-08T12:50:32.989Z,17.20
2022-12-08T12:53:05.868Z,8.40
2022-12-08T12:55:53.587Z,8.10
2022-12-08T12:58:19.861Z,8.70
2022-12-08T13:00:46.244Z,8.90
2022-12-08T13:03:14.177Z,9.10
2022-12-08T13:05:48.930Z,9.50
2022-12-08T13:08:23.136Z,10.00
2022-12-08T13:10:57.691Z,8.90
2022-12-08T13:13:24.121Z,17.00
2022-12-08T13:15:51.763Z,9.10
2022-12-08T13:18:25.988Z,13.80
2022-12-08T13:20:54.480Z,16.30
2022-12-08T13:23:36.321Z,19.40
2022-12-08T13:26:19.866Z,24.00
2022-12-08T13:28:58.736Z,14.30
2022-12-08T13:31:34.453Z,13.00
2022-12-08T13:34:03.469Z,19.70
2022-12-08T13:36:34.884Z,19.60
2022-12-08T13:39:01.549Z,19.20
2022-12-08T13:41:34.014Z,19.10
2022-12-08T13:45:18.163Z,16.90
2022-12-08T13:58:29.095Z,21.10
2022-12-08T14:01:15.681Z,26.20
2022-12-08T14:04:12.790Z,20.70
2022-12-08T14:06:37.737Z,23.60
2022-12-08T14:09:11.442Z,16.80
2022-12-08T14:11:47.165Z,12.30
2022-12-08T14:14:45.765Z,17.60
2022-12-08T14:17:12.171Z,17.70
2022-12-08T14:19:38.737Z,19.90
2022-12-08T14:22:07.863Z,15.60
2022-12-08T14:24:34.329Z,26.10
2022-12-08T14:27:02.644Z,33.50
2022-12-08T14:29:43.528Z,45.80
2022-12-08T14:32:29.474Z,40.30
2022-12-08T14:35:16.062Z,27.30
2022-12-08T14:37:43.856Z,24.50
2022-12-08T14:40:28.863Z,31.00
2022-12-08T14:43:07.351Z,27.00
2022-12-08T14:45:39.430Z,40.00
2022-12-08T14:48:18.094Z,46.30
2022-12-08T14:50:45.982Z,45.50
2022-12-08T14:53:14.304Z,47.30
2022-12-08T14:55:41.980Z,103.70
2022-12-08T14:58:16.768Z,53.40
2022-12-08T15:00:48.028Z,46.60
2022-12-08T15:05:42.028Z,23.70
2022-12-08T15:08:12.206Z,29.90
2022-12-08T15:10:39.371Z,28.10
2022-12-08T15:13:06.760Z,43.30
2022-12-08T15:15:45.600Z,38.30
2022-12-08T15:18:17.244Z,51.00
2022-12-08T15:20:45.203Z,49.90
2022-12-08T15:23:23.475Z,51.20
2022-12-08T15:25:49.796Z,55.50
2022-12-08T15:28:17.493Z,37.20
2022-12-08T15:30:43.808Z,31.70
2022-12-08T15:33:10.206Z,45.30
2022-12-08T15:35:40.779Z,175.90
2022-12-08T15:38:16.006Z,113.10
2022-12-08T15:40:42.268Z,88.70
2022-12-08T15:43:10.030Z,105.20
2022-12-08T15:45:36.494Z,62.80
2022-12-08T15:48:03.047Z,123.50
2022-12-08T15:50:29.396Z,59.70
2022-12-08T15:52:55.715Z,32.80
2022-12-08T15:55:22.135Z,56.40
2022-12-08T16:00:52.407Z,61.10
2022-12-08T16:03:59.855Z,43.60
2022-12-08T16:09:11.974Z,67.60
2022-12-08T16:12:06.605Z,70.80
2022-12-08T16:15:39.854Z,71.00
2022-12-08T16:17:20.563Z,58.00
2022-12-08T16:19:46.974Z,45.30
2022-12-08T16:22:52.473Z,41.40
2022-12-08T16:25:17.719Z,27.00
2022-12-08T16:30:32.022Z,14.70
2022-12-08T16:32:58.418Z,14.50
2022-12-08T16:35:24.691Z,40.60
2022-12-08T16:37:51.133Z,55.90
2022-12-08T16:40:17.800Z,51.70
2022-12-08T16:42:45.315Z,80.50
2022-12-08T16:45:20.244Z,87.20
2022-12-08T16:47:47.757Z,66.00
2022-12-08T16:50:19.060Z,56.40
2022-12-08T16:52:46.410Z,24.90
2022-12-08T16:55:15.541Z,61.20
2022-12-08T16:57:42.277Z,20.60
2022-12-08T17:00:10.618Z,17.70
2022-12-08T17:02:37.219Z,21.20
2022-12-08T17:05:04.038Z,17.10
2022-12-08T17:07:31.290Z,16.50
2022-12-08T17:09:57.924Z,16.40
2022-12-08T17:12:24.360Z,18.10
2022-12-08T17:14:50.677Z,15.20
2022-12-08T17:17:17.017Z,47.80
2022-12-08T17:19:43.518Z,36.30
2022-12-08T17:22:09.874Z,34.50
2022-12-08T17:24:36.811Z,24.60
2022-12-08T17:27:03.651Z,46.50
2022-12-08T17:29:30.642Z,39.00
2022-12-08T17:31:57.741Z,41.20
2022-12-08T17:34:24.344Z,47.40
2022-12-08T17:36:51.075Z,61.20
2022-12-08T17:39:18.960Z,81.80
2022-12-08T17:41:45.917Z,128.70
2022-12-08T17:44:13.544Z,63.20
2022-12-08T17:46:43.390Z,37.50
2022-12-08T17:49:15.453Z,42.90
2022-12-08T17:51:42.076Z,123.10
2022-12-08T17:54:08.436Z,47.10
2022-12-08T17:56:34.763Z,66.00
2022-12-08T17:59:02.283Z,63.50
2022-12-08T18:01:28.829Z,40.10
2022-12-08T18:03:57.277Z,272.10
2022-12-08T18:06:26.862Z,277.00
2022-12-08T18:08:56.848Z,389.10
2022-12-08T18:11:23.513Z,52.20
2022-12-08T18:13:50.208Z,97.30
2022-12-08T18:16:18.251Z,89.80
2022-12-08T18:18:44.590Z,66.80
2022-12-08T18:21:11.173Z,60.20
2022-12-08T18:23:38.497Z,164.80
2022-12-08T18:26:05.304Z,108.10
2022-12-08T18:28:31.635Z,97.20
2022-12-08T18:30:58.006Z,95.00
2022-12-08T18:33:25.118Z,70.90
2022-12-08T18:35:51.639Z,69.50
2022-12-08T18:38:18.103Z,101.70
2022-12-08T18:40:44.549Z,133.40
2022-12-08T18:43:10.838Z,128.30
2022-12-08T18:45:39.057Z,66.80
2022-12-08T18:48:07.800Z,63.00
2022-12-08T18:50:34.341Z,40.40
2022-12-08T18:53:00.692Z,21.20
2022-12-08T18:55:26.995Z,19.40
2022-12-08T18:57:53.594Z,31.70
2022-12-08T19:00:20.330Z,76.40
2022-12-08T19:02:46.809Z,85.00
2022-12-08T19:05:13.421Z,62.90
2022-12-08T19:07:41.751Z,67.50
2022-12-08T19:10:08.806Z,67.60
2022-12-08T19:12:35.434Z,76.50
2022-12-08T19:15:01.813Z,109.70
2022-12-08T19:17:29.125Z,69.20
2022-12-08T19:19:55.464Z,66.50
2022-12-08T19:22:21.825Z,54.30
2022-12-08T19:24:48.169Z,49.30
2022-12-08T19:27:14.466Z,43.60
2022-12-08T19:29:40.820Z,36.50
2022-12-08T19:32:07.210Z,41.40
2022-12-08T19:34:33.658Z,39.40
2022-12-08T19:37:00.044Z,40.90
2022-12-08T19:39:45.458Z,57.80
2022-12-08T19:42:34.178Z,50.40
2022-12-08T19:45:03.388Z,48.40
2022-12-08T19:47:29.770Z,42.20
2022-12-08T19:50:16.329Z,36.20
2022-12-08T19:52:43.292Z,34.10
2022-12-08T19:55:09.869Z,30.00
2022-12-08T19:57:36.312Z,33.60
2022-12-08T20:00:04.093Z,39.00
2022-12-08T20:02:36.096Z,45.40
2022-12-08T20:05:03.713Z,36.80
2022-12-08T20:07:30.364Z,55.10
2022-12-08T20:09:56.697Z,32.60
2022-12-08T20:12:23.010Z,37.40
2022-12-08T20:14:49.364Z,44.40
2022-12-08T20:17:15.704Z,63.90
2022-12-08T20:19:42.284Z,78.00
2022-12-08T20:22:08.827Z,94.30
2022-12-08T20:24:35.671Z,103.10
2022-12-08T20:27:02.027Z,62.10
2022-12-08T20:29:28.477Z,46.10
2022-12-08T20:31:54.894Z,42.20
2022-12-08T20:34:21.492Z,39.60
2022-12-08T20:36:48.198Z,38.70
2022-12-08T20:39:15.861Z,38.60
2022-12-08T20:41:43.261Z,38.50
2022-12-08T20:44:10.252Z,32.20
2022-12-08T20:46:37.010Z,48.80
2022-12-08T20:49:03.930Z,47.50
2022-12-08T20:51:32.131Z,34.90
2022-12-08T20:53:58.968Z,33.70
2022-12-08T20:56:25.448Z,38.20
2022-12-08T20:58:53.100Z,25.40
2022-12-08T21:01:20.994Z,22.70
2022-12-08T21:03:48.344Z,20.20
2022-12-08T21:06:19.974Z,17.90
2022-12-08T21:08:46.498Z,25.00
2022-12-08T21:11:13.120Z,18.30
2022-12-08T21:13:39.903Z,15.40
2022-12-08T21:16:08.514Z,23.20
2022-12-08T21:18:39.480Z,23.50
2022-12-08T21:21:08.877Z,23.30
2022-12-08T21:23:35.950Z,15.60
2022-12-08T21:26:08.126Z,18.90
2022-12-08T21:28:34.488Z,19.20
2022-12-08T21:31:05.084Z,25.30
2022-12-08T21:33:31.740Z,19.90
2022-12-08T21:36:07.521Z,21.20
2022-12-08T21:38:34.842Z,25.50
2022-12-08T21:41:03.157Z,43.20
2022-12-08T21:43:29.760Z,23.80
2022-12-08T21:45:56.392Z,41.70
2022-12-08T21:48:22.949Z,47.20
2022-12-08T21:50:49.667Z,44.10
2022-12-08T21:53:16.265Z,55.50
2022-12-08T21:55:42.620Z,47.50
2022-12-08T21:58:09.032Z,43.50
2022-12-08T22:00:35.622Z,45.30
2022-12-08T22:03:02.900Z,55.90
2022-12-08T22:05:29.566Z,40.80
2022-12-08T22:07:56.389Z,38.90
2022-12-08T22:10:23.052Z,36.10
2022-12-08T22:12:49.545Z,36.40
2022-12-08T22:15:16.087Z,34.60
2022-12-08T22:17:43.026Z,39.60
2022-12-08T22:20:11.947Z,41.70
2022-12-08T22:22:39.226Z,41.70
2022-12-08T22:25:06.960Z,34.10
2022-12-08T22:27:33.823Z,39.50
2022-12-08T22:30:00.411Z,38.90
2022-12-08T22:32:27.128Z,35.30
2022-12-08T22:34:53.665Z,37.00
2022-12-08T22:37:20.256Z,39.90
2022-12-08T22:39:46.762Z,39.10
2022-12-08T22:42:14.596Z,38.80
2022-12-08T22:44:41.139Z,39.00
2022-12-08T22:47:07.773Z,31.80
2022-12-08T22:49:35.961Z,25.80
2022-12-08T22:52:02.536Z,29.00
2022-12-08T22:54:29.020Z,37.20
2022-12-08T22:56:55.385Z,35.70
2022-12-08T22:59:21.935Z,34.30
2022-12-08T23:01:48.774Z,32.90
2022-12-08T23:04:18.323Z,25.90
2022-12-08T23:06:45.113Z,25.50
2022-12-08T23:09:12.013Z,36.70
2022-12-08T23:11:38.700Z,30.90
2022-12-08T23:14:05.316Z,30.40
2022-12-08T23:16:32.999Z,33.00
2022-12-08T23:18:59.678Z,31.20
2022-12-08T23:21:26.443Z,30.50
2022-12-08T23:23:53.041Z,32.00
2022-12-08T23:26:24.331Z,34.00
2022-12-08T23:28:51.044Z,40.20
2022-12-08T23:31:17.896Z,37.10
2022-12-08T23:33:44.965Z,32.60
2022-12-08T23:36:11.901Z,31.40
2022-12-08T23:38:38.475Z,28.90
2022-12-08T23:41:06.048Z,28.30
2022-12-08T23:43:33.472Z,30.50
2022-12-08T23:46:00.585Z,30.50
2022-12-08T23:48:28.358Z,28.10
2022-12-08T23:50:56.637Z,24.80
2022-12-08T23:53:23.305Z,29.10
2022-12-08T23:55:49.751Z,26.80
2022-12-08T23:58:16.191Z,29.10
